Boyds, Washington
Current Conditions -  °F | °C
As of 4:00 PM on Saturday 25 Oct 2014 (Local Time) from CYCG Reporting Station
Broken Clouds Broken Clouds  
Wind Chill: 50°   Ceiling: 9500
Heat Index: 50°   Visibility: 15mi
Dew Point: 43°   Wind: 8mph
Humidity: 76%   Direction: 360°N
Pressure: 29.57"   Gusts: NA
Location:  48.82°N, 118.18°W
Report Text: CYCG 252300Z 36007KT 15SM BKN095 BKN160 10/06 A2957 RMK AC5AC2 SLP021 DENSITY ALT 1700FT
Loading
Personal Weather Stations






























Interactive Weather Map
Tropical Storm Tracking
New forecast layout! Learn more

10-Day Weather Forecast

Advertisements
Track Severe Weather on mobile